createdAt,value
2017-09-16T00:02:29.653Z,1002.73
2017-09-16T00:12:29.620Z,1002.67
2017-09-16T00:22:29.561Z,1002.49
2017-09-16T00:32:29.617Z,1002.51
2017-09-16T00:42:29.571Z,1002.47
2017-09-16T00:52:29.678Z,1002.39
2017-09-16T01:02:29.588Z,1002.35
2017-09-16T01:12:29.544Z,1002.33
2017-09-16T01:22:29.620Z,1002.29
2017-09-16T01:32:29.589Z,1002.23
2017-09-16T01:42:29.556Z,1002.17
2017-09-16T01:52:29.598Z,1002.1
2017-09-16T02:02:30.203Z,1002.06
2017-09-16T02:12:29.832Z,1002.08
2017-09-16T02:22:29.658Z,1002.05
2017-09-16T02:32:29.556Z,1002.1
2017-09-16T02:42:29.622Z,1001.99
2017-09-16T02:52:29.576Z,1002.01
2017-09-16T03:02:29.538Z,1002.07
2017-09-16T03:12:29.607Z,1002.06
2017-09-16T03:22:29.551Z,1002.06
2017-09-16T03:32:29.514Z,1001.98
2017-09-16T03:42:29.609Z,1002.03
2017-09-16T03:52:29.549Z,1002.02
2017-09-16T04:02:29.605Z,1002.01
2017-09-16T04:12:29.576Z,1002.03
2017-09-16T04:22:29.541Z,1002.06
2017-09-16T04:32:29.586Z,1002.05
2017-09-16T04:42:29.546Z,1002.08
2017-09-16T04:52:29.511Z,1002.09
2017-09-16T05:02:29.569Z,1002.12
2017-09-16T05:12:29.546Z,1002.18
2017-09-16T05:22:29.498Z,1002.08
2017-09-16T05:32:29.561Z,1002.17
2017-09-16T05:42:29.512Z,1002.22
2017-09-16T05:52:29.498Z,1002.29
2017-09-16T06:02:29.539Z,1002.3
2017-09-16T06:12:29.499Z,1002.24
2017-09-16T06:22:29.561Z,1002.27
2017-09-16T06:32:29.534Z,1002.36
2017-09-16T06:42:29.612Z,1002.42
2017-09-16T06:52:29.553Z,1002.44
2017-09-16T07:02:29.528Z,1002.56
2017-09-16T07:12:29.586Z,1002.57
2017-09-16T07:22:29.533Z,1002.66
2017-09-16T07:32:29.506Z,1002.74
2017-09-16T07:42:29.594Z,1002.91
2017-09-16T07:52:29.543Z,1002.97
2017-09-16T08:02:29.506Z,1003.12
2017-09-16T08:12:29.566Z,1003.1
2017-09-16T08:22:29.523Z,1003.19
2017-09-16T08:32:29.483Z,1003.14
2017-09-16T08:42:29.566Z,1003.15
2017-09-16T08:52:29.521Z,1003.22
2017-09-16T09:02:29.578Z,1003.23
2017-09-16T09:12:29.554Z,1003.25
2017-09-16T09:22:29.513Z,1003.29
2017-09-16T09:32:29.565Z,1003.31
2017-09-16T09:42:29.540Z,1003.27
2017-09-16T09:52:29.491Z,1003.27
2017-09-16T10:02:29.559Z,1003.22
2017-09-16T10:12:29.492Z,1003.19
2017-09-16T10:22:29.572Z,1003.22
2017-09-16T10:32:29.534Z,1003.21
2017-09-16T10:42:29.502Z,1003.21
2017-09-16T10:52:29.549Z,1003.23
2017-09-16T11:02:29.525Z,1003.23
2017-09-16T11:12:29.571Z,1003.21
2017-09-16T11:22:29.564Z,1003.18
2017-09-16T11:32:29.605Z,1003.16
2017-09-16T11:42:29.578Z,1003.28
2017-09-16T11:52:29.636Z,1003.28
2017-09-16T12:02:29.962Z,1003.3
2017-09-16T12:12:29.647Z,1003.33
2017-09-16T12:22:43.141Z,1003.28
2017-09-16T12:32:43.034Z,1003.26
2017-09-16T12:42:38.054Z,1003.27
2017-09-16T12:52:42.540Z,1003.3
2017-09-16T13:02:42.883Z,1003.31
2017-09-16T13:12:47.027Z,1003.28
2017-09-16T13:22:41.880Z,1003.25
2017-09-16T13:32:43.114Z,1003.25
2017-09-16T13:42:29.568Z,1003.26
2017-09-16T13:52:29.639Z,1003.2
2017-09-16T14:02:29.606Z,1003.17
2017-09-16T14:12:29.650Z,1003.02
2017-09-16T14:22:29.617Z,1003.01
2017-09-16T14:32:29.579Z,1002.92
2017-09-16T14:42:29.626Z,1002.94
2017-09-16T14:52:29.584Z,1002.92
2017-09-16T15:02:29.685Z,1002.88
2017-09-16T15:12:29.578Z,1002.83
2017-09-16T15:22:29.588Z,1002.92
2017-09-16T15:32:29.662Z,1002.93
2017-09-16T15:42:29.582Z,1002.97
2017-09-16T15:52:29.594Z,1003
2017-09-16T16:02:29.626Z,1003.04
2017-09-16T16:12:29.588Z,1003.08
2017-09-16T16:22:29.655Z,1003.17
2017-09-16T16:32:29.634Z,1003.27
2017-09-16T16:42:29.602Z,1003.39
2017-09-16T16:52:29.656Z,1003.49
2017-09-16T17:02:29.599Z,1003.61
2017-09-16T17:12:29.583Z,1003.65
2017-09-16T17:22:29.642Z,1003.6
2017-09-16T17:32:29.580Z,1003.68
2017-09-16T17:42:29.656Z,1003.73
2017-09-16T17:52:29.640Z,1003.8
2017-09-16T18:02:29.576Z,1003.91
2017-09-16T18:12:29.649Z,1003.98
2017-09-16T18:22:29.594Z,1004.09
2017-09-16T18:32:29.665Z,1004.14
2017-09-16T18:42:29.615Z,1004.19
2017-09-16T18:52:29.590Z,1004.26
2017-09-16T19:02:29.673Z,1004.31
2017-09-16T19:12:30.662Z,1004.38
2017-09-16T19:22:29.588Z,1004.54
2017-09-16T19:32:29.637Z,1004.62
2017-09-16T19:42:29.598Z,1004.55
2017-09-16T19:52:29.647Z,1004.62
2017-09-16T20:02:29.624Z,1004.65
2017-09-16T20:12:29.680Z,1004.73
2017-09-16T20:22:29.668Z,1004.85
2017-09-16T20:32:29.699Z,1004.93
2017-09-16T20:42:29.677Z,1005.06
2017-09-16T20:52:29.735Z,1004.97
2017-09-16T21:02:29.693Z,1005.03
2017-09-16T21:12:29.652Z,1005.01
2017-09-16T21:22:29.728Z,1004.99
2017-09-16T21:32:29.683Z,1005.02
2017-09-16T21:42:29.741Z,1005.11
2017-09-16T21:52:29.722Z,1005.23
2017-09-16T22:02:29.752Z,1005.25
2017-09-16T22:12:29.713Z,1005.25
2017-09-16T22:22:29.717Z,1005.24
2017-09-16T22:32:29.769Z,1005.28
2017-09-16T22:42:29.821Z,1005.26
2017-09-16T22:52:29.815Z,1005.26
2017-09-16T23:02:30.097Z,1005.32
2017-09-16T23:12:30.016Z,1005.4
2017-09-16T23:22:29.819Z,1005.37
2017-09-16T23:32:29.840Z,1005.4
2017-09-16T23:42:29.835Z,1005.43
2017-09-16T23:52:29.895Z,1005.35
